Strona główna
METAR-TAF:

METAR-TAF

Lotnisko :

Oswego County Airport

Fulton, Nowy Jork, Stany Zjednoczone

Szerokość geograficzna: 43-21-03N, Długość geograficzna: 076-23-17W, wysokość: 145 m

Aktualna obserwacja pogody

Raport powstał 53 minut temu, godzina 14:54 UTC
Wiatr 7 kt od zachód
Temperatura 25°C
Wilgotność 47%
Ciśnienie 1009 hPa
Widzialność: 16.1 km
bezchmurnie

METAR: KFZY 041454Z AUTO 27007KT 10SM CLR 25/13 A2981 RMK AO2 SLP093 T02500133 51007

czas: 11:47 (15:47 UTC)


TAF: brakujący

Obserwacja i prognoza pogody dla ponad 4000 lotnisk (raport METAR i TAF).

Dostępne stacje oznaczono żółtymi i czerwonymi punktami na mapie.

Najedź kursorem aby zobaczyć nazwę stacji.

Kliknij aby zobaczyć obserwacje i prognozy pogody.

Aby zmienić mapę: kliknij na zielony przycisk z czarnym krzyżykiem, aby powiększyć; na zielony przycisk z myślnikiem, aby pomniejszyć; na zielone strzałki, aby przejść do map sąsiednich.


METAR-TAF: